sensor_id;sensor_type;location;lat;lon;timestamp;pressure;altitude;pressure_sealevel;temperature;humidity
37764;BME280;23602;51.084;7.090;2023-03-16T00:00:35;100530.72;;;-0.11;100.00
37764;BME280;23602;51.084;7.090;2023-03-16T00:03:01;100529.59;;;-0.08;100.00
37764;BME280;23602;51.084;7.090;2023-03-16T00:05:26;100525.28;;;-0.09;100.00
37764;BME280;23602;51.084;7.090;2023-03-16T00:07:52;100521.69;;;-0.08;100.00
37764;BME280;23602;51.084;7.090;2023-03-16T00:10:18;100515.75;;;-0.01;100.00
37764;BME280;23602;51.084;7.090;2023-03-16T00:12:43;100506.31;;;0.16;100.00
37764;BME280;23602;51.084;7.090;2023-03-16T00:15:09;100503.94;;;0.13;100.00
37764;BME280;23602;51.084;7.090;2023-03-16T00:17:34;100486.69;;;0.09;100.00
37764;BME280;23602;51.084;7.090;2023-03-16T00:20:00;100488.66;;;0.07;100.00
37764;BME280;23602;51.084;7.090;2023-03-16T00:22:30;100505.34;;;0.08;100.00
37764;BME280;23602;51.084;7.090;2023-03-16T00:24:57;100498.91;;;0.00;100.00
37764;BME280;23602;51.084;7.090;2023-03-16T00:27:23;100498.09;;;0.00;100.00
37764;BME280;23602;51.084;7.090;2023-03-16T00:29:49;100471.13;;;0.16;100.00
37764;BME280;23602;51.084;7.090;2023-03-16T00:32:20;100476.28;;;0.08;100.00
37764;BME280;23602;51.084;7.090;2023-03-16T00:34:46;100476.53;;;0.05;100.00
37764;BME280;23602;51.084;7.090;2023-03-16T00:37:12;100484.88;;;0.00;100.00
37764;BME280;23602;51.084;7.090;2023-03-16T00:39:40;100480.84;;;0.06;100.00
37764;BME280;23602;51.084;7.090;2023-03-16T00:42:05;100488.75;;;0.06;100.00
37764;BME280;23602;51.084;7.090;2023-03-16T00:44:31;100485.31;;;0.05;100.00
37764;BME280;23602;51.084;7.090;2023-03-16T00:46:56;100482.66;;;0.05;100.00
37764;BME280;23602;51.084;7.090;2023-03-16T00:49:21;100484.03;;;-0.01;100.00
37764;BME280;23602;51.084;7.090;2023-03-16T00:51:47;100479.03;;;0.06;100.00
37764;BME280;23602;51.084;7.090;2023-03-16T00:54:12;100480.31;;;0.12;100.00
37764;BME280;23602;51.084;7.090;2023-03-16T00:56:37;100470.41;;;0.04;100.00
37764;BME280;23602;51.084;7.090;2023-03-16T00:59:03;100484.75;;;0.11;100.00
37764;BME280;23602;51.084;7.090;2023-03-16T01:01:29;100472.41;;;0.21;100.00
37764;BME280;23602;51.084;7.090;2023-03-16T01:03:56;100468.81;;;0.22;100.00
37764;BME280;23602;51.084;7.090;2023-03-16T01:06:23;100475.19;;;0.20;100.00
37764;BME280;23602;51.084;7.090;2023-03-16T01:08:50;100475.47;;;0.17;100.00
37764;BME280;23602;51.084;7.090;2023-03-16T01:11:17;100477.25;;;0.16;100.00
37764;BME280;23602;51.084;7.090;2023-03-16T01:13:43;100477.41;;;0.15;100.00
37764;BME280;23602;51.084;7.090;2023-03-16T01:16:10;100448.50;;;0.32;100.00
37764;BME280;23602;51.084;7.090;2023-03-16T01:18:36;100451.69;;;0.36;100.00
37764;BME280;23602;51.084;7.090;2023-03-16T01:21:03;100452.28;;;0.39;100.00
37764;BME280;23602;51.084;7.090;2023-03-16T01:23:29;100443.66;;;0.37;100.00
37764;BME280;23602;51.084;7.090;2023-03-16T01:25:55;100423.19;;;0.49;100.00
37764;BME280;23602;51.084;7.090;2023-03-16T01:28:21;100424.59;;;0.53;100.00
37764;BME280;23602;51.084;7.090;2023-03-16T01:30:48;100418.91;;;0.57;100.00
37764;BME280;23602;51.084;7.090;2023-03-16T01:33:14;100433.34;;;0.53;100.00
37764;BME280;23602;51.084;7.090;2023-03-16T01:35:39;100431.53;;;0.54;100.00
37764;BME280;23602;51.084;7.090;2023-03-16T01:38:05;100425.28;;;0.55;100.00
37764;BME280;23602;51.084;7.090;2023-03-16T01:40:30;100416.41;;;0.66;100.00
37764;BME280;23602;51.084;7.090;2023-03-16T01:42:59;100416.25;;;0.67;100.00
37764;BME280;23602;51.084;7.090;2023-03-16T01:48:09;100396.88;;;0.86;100.00
37764;BME280;23602;51.084;7.090;2023-03-16T01:50:35;100394.78;;;0.80;100.00
37764;BME280;23602;51.084;7.090;2023-03-16T01:53:00;100386.84;;;0.80;100.00
37764;BME280;23602;51.084;7.090;2023-03-16T01:55:26;100391.75;;;0.75;100.00
37764;BME280;23602;51.084;7.090;2023-03-16T01:57:51;100386.72;;;0.81;100.00
37764;BME280;23602;51.084;7.090;2023-03-16T02:00:18;100373.91;;;0.86;100.00
37764;BME280;23602;51.084;7.090;2023-03-16T02:02:48;100371.69;;;0.91;100.00
37764;BME280;23602;51.084;7.090;2023-03-16T02:05:28;100355.22;;;0.97;100.00
37764;BME280;23602;51.084;7.090;2023-03-16T02:07:57;100361.06;;;1.01;100.00
37764;BME280;23602;51.084;7.090;2023-03-16T02:10:23;100365.28;;;0.94;100.00
37764;BME280;23602;51.084;7.090;2023-03-16T02:12:51;100359.81;;;0.95;100.00
37764;BME280;23602;51.084;7.090;2023-03-16T02:15:16;100359.13;;;0.93;100.00
37764;BME280;23602;51.084;7.090;2023-03-16T02:17:42;100357.88;;;0.88;100.00
37764;BME280;23602;51.084;7.090;2023-03-16T02:22:41;100353.41;;;0.98;100.00
37764;BME280;23602;51.084;7.090;2023-03-16T02:25:07;100354.69;;;0.94;100.00
37764;BME280;23602;51.084;7.090;2023-03-16T02:30:02;100334.31;;;0.94;100.00
37764;BME280;23602;51.084;7.090;2023-03-16T02:32:29;100332.97;;;0.90;100.00
37764;BME280;23602;51.084;7.090;2023-03-16T02:34:56;100330.88;;;0.94;100.00
37764;BME280;23602;51.084;7.090;2023-03-16T02:37:23;100330.03;;;0.93;100.00
37764;BME280;23602;51.084;7.090;2023-03-16T02:39:48;100322.38;;;0.90;100.00
37764;BME280;23602;51.084;7.090;2023-03-16T02:42:17;100331.44;;;0.88;100.00
37764;BME280;23602;51.084;7.090;2023-03-16T02:44:45;100334.31;;;0.94;100.00
37764;BME280;23602;51.084;7.090;2023-03-16T02:47:15;100336.03;;;0.86;100.00
37764;BME280;23602;51.084;7.090;2023-03-16T02:49:43;100333.66;;;0.92;100.00
37764;BME280;23602;51.084;7.090;2023-03-16T02:52:09;100322.50;;;0.98;100.00
37764;BME280;23602;51.084;7.090;2023-03-16T02:54:35;100313.56;;;0.99;100.00
37764;BME280;23602;51.084;7.090;2023-03-16T02:57:01;100314.53;;;1.08;100.00
37764;BME280;23602;51.084;7.090;2023-03-16T02:59:26;100311.84;;;1.17;100.00
37764;BME280;23602;51.084;7.090;2023-03-16T03:01:51;100323.97;;;1.10;100.00
37764;BME280;23602;51.084;7.090;2023-03-16T03:04:17;100317.34;;;0.97;100.00
37764;BME280;23602;51.084;7.090;2023-03-16T03:06:42;100311.22;;;0.96;100.00
37764;BME280;23602;51.084;7.090;2023-03-16T03:09:08;100307.75;;;0.96;100.00
37764;BME280;23602;51.084;7.090;2023-03-16T03:11:35;100309.00;;;0.92;100.00
37764;BME280;23602;51.084;7.090;2023-03-16T03:14:01;100306.50;;;0.90;100.00
37764;BME280;23602;51.084;7.090;2023-03-16T03:16:26;100298.84;;;0.87;100.00
37764;BME280;23602;51.084;7.090;2023-03-16T03:18:51;100303.31;;;0.87;100.00
37764;BME280;23602;51.084;7.090;2023-03-16T03:21:17;100312.91;;;0.88;100.00
37764;BME280;23602;51.084;7.090;2023-03-16T03:23:42;100310.28;;;0.88;100.00
37764;BME280;23602;51.084;7.090;2023-03-16T03:26:10;100308.88;;;0.93;100.00
37764;BME280;23602;51.084;7.090;2023-03-16T03:28:35;100293.19;;;1.19;100.00
37764;BME280;23602;51.084;7.090;2023-03-16T03:31:01;100289.00;;;1.16;100.00
37764;BME280;23602;51.084;7.090;2023-03-16T03:33:26;100280.78;;;1.19;100.00
37764;BME280;23602;51.084;7.090;2023-03-16T03:35:53;100294.69;;;1.21;100.00
37764;BME280;23602;51.084;7.090;2023-03-16T03:38:18;100291.22;;;1.21;100.00
37764;BME280;23602;51.084;7.090;2023-03-16T03:40:43;100298.06;;;1.14;100.00
37764;BME280;23602;51.084;7.090;2023-03-16T03:43:09;100298.81;;;1.34;100.00
37764;BME280;23602;51.084;7.090;2023-03-16T03:45:34;100288.00;;;1.27;100.00
37764;BME280;23602;51.084;7.090;2023-03-16T03:47:59;100295.81;;;1.19;100.00
37764;BME280;23602;51.084;7.090;2023-03-16T03:50:25;100294.09;;;1.27;100.00
37764;BME280;23602;51.084;7.090;2023-03-16T03:52:50;100287.88;;;1.46;100.00
37764;BME280;23602;51.084;7.090;2023-03-16T03:55:15;100282.41;;;1.48;100.00
37764;BME280;23602;51.084;7.090;2023-03-16T03:57:41;100273.13;;;1.44;100.00
37764;BME280;23602;51.084;7.090;2023-03-16T04:00:06;100278.19;;;1.37;100.00
37764;BME280;23602;51.084;7.090;2023-03-16T04:02:34;100268.84;;;1.33;100.00
37764;BME280;23602;51.084;7.090;2023-03-16T04:05:00;100274.59;;;1.28;100.00
37764;BME280;23602;51.084;7.090;2023-03-16T04:07:25;100278.88;;;1.39;100.00
37764;BME280;23602;51.084;7.090;2023-03-16T04:09:50;100272.03;;;1.37;100.00
37764;BME280;23602;51.084;7.090;2023-03-16T04:12:16;100279.06;;;1.28;100.00
37764;BME280;23602;51.084;7.090;2023-03-16T04:14:41;100280.78;;;1.19;100.00
37764;BME280;23602;51.084;7.090;2023-03-16T04:17:07;100279.94;;;1.19;100.00
37764;BME280;23602;51.084;7.090;2023-03-16T04:19:32;100275.22;;;1.13;100.00
37764;BME280;23602;51.084;7.090;2023-03-16T04:21:58;100284.28;;;1.10;100.00
37764;BME280;23602;51.084;7.090;2023-03-16T04:24:23;100259.91;;;1.16;100.00
37764;BME280;23602;51.084;7.090;2023-03-16T04:26:48;100262.81;;;1.13;100.00
37764;BME280;23602;51.084;7.090;2023-03-16T04:29:14;100259.91;;;1.07;100.00
37764;BME280;23602;51.084;7.090;2023-03-16T04:31:42;100259.84;;;0.99;100.00
37764;BME280;23602;51.084;7.090;2023-03-16T04:34:07;100260.13;;;0.96;100.00
37764;BME280;23602;51.084;7.090;2023-03-16T04:36:32;100252.41;;;1.02;100.00
37764;BME280;23602;51.084;7.090;2023-03-16T04:38:58;100251.16;;;1.06;100.00
37764;BME280;23602;51.084;7.090;2023-03-16T04:41:23;100252.25;;;1.13;100.00
37764;BME280;23602;51.084;7.090;2023-03-16T04:43:49;100244.84;;;1.17;100.00
37764;BME280;23602;51.084;7.090;2023-03-16T04:46:14;100236.31;;;1.23;100.00
37764;BME280;23602;51.084;7.090;2023-03-16T04:48:40;100234.41;;;1.15;100.00
37764;BME280;23602;51.084;7.090;2023-03-16T04:51:05;100243.75;;;1.10;100.00
37764;BME280;23602;51.084;7.090;2023-03-16T04:53:30;100242.06;;;1.18;100.00
37764;BME280;23602;51.084;7.090;2023-03-16T04:55:56;100231.56;;;1.26;100.00
37764;BME280;23602;51.084;7.090;2023-03-16T04:58:22;100243.56;;;1.21;100.00
37764;BME280;23602;51.084;7.090;2023-03-16T05:00:47;100230.94;;;1.33;100.00
37764;BME280;23602;51.084;7.090;2023-03-16T05:03:13;100238.38;;;1.29;100.00
37764;BME280;23602;51.084;7.090;2023-03-16T05:05:38;100237.09;;;1.33;100.00
37764;BME280;23602;51.084;7.090;2023-03-16T05:08:04;100221.84;;;1.45;100.00
37764;BME280;23602;51.084;7.090;2023-03-16T05:10:30;100226.97;;;1.46;100.00
37764;BME280;23602;51.084;7.090;2023-03-16T05:12:56;100227.06;;;1.54;100.00
37764;BME280;23602;51.084;7.090;2023-03-16T05:15:21;100217.72;;;1.50;100.00
37764;BME280;23602;51.084;7.090;2023-03-16T05:17:46;100221.75;;;1.54;100.00
37764;BME280;23602;51.084;7.090;2023-03-16T05:20:12;100226.53;;;1.51;100.00
37764;BME280;23602;51.084;7.090;2023-03-16T05:22:41;100229.63;;;1.46;100.00
37764;BME280;23602;51.084;7.090;2023-03-16T05:25:07;100231.69;;;1.52;100.00
37764;BME280;23602;51.084;7.090;2023-03-16T05:27:33;100233.25;;;1.45;100.00
37764;BME280;23602;51.084;7.090;2023-03-16T05:29:59;100243.41;;;1.50;100.00
37764;BME280;23602;51.084;7.090;2023-03-16T05:32:25;100228.03;;;1.71;100.00
37764;BME280;23602;51.084;7.090;2023-03-16T05:34:51;100220.72;;;1.65;100.00
37764;BME280;23602;51.084;7.090;2023-03-16T05:37:17;100224.97;;;1.75;100.00
37764;BME280;23602;51.084;7.090;2023-03-16T05:39:43;100221.59;;;1.73;100.00
37764;BME280;23602;51.084;7.090;2023-03-16T05:42:08;100224.63;;;1.78;100.00
37764;BME280;23602;51.084;7.090;2023-03-16T05:44:34;100229.19;;;1.86;100.00
37764;BME280;23602;51.084;7.090;2023-03-16T05:46:59;100220.09;;;1.88;100.00
37764;BME280;23602;51.084;7.090;2023-03-16T05:49:24;100219.28;;;1.88;100.00
37764;BME280;23602;51.084;7.090;2023-03-16T05:51:50;100223.75;;;1.87;100.00
37764;BME280;23602;51.084;7.090;2023-03-16T05:54:16;100221.41;;;1.84;100.00
37764;BME280;23602;51.084;7.090;2023-03-16T05:56:41;100232.00;;;1.84;100.00
37764;BME280;23602;51.084;7.090;2023-03-16T05:59:06;100220.44;;;1.85;100.00
37764;BME280;23602;51.084;7.090;2023-03-16T06:01:32;100238.81;;;1.87;100.00
37764;BME280;23602;51.084;7.090;2023-03-16T06:03:58;100231.06;;;1.93;100.00
37764;BME280;23602;51.084;7.090;2023-03-16T06:06:23;100234.56;;;1.94;100.00
37764;BME280;23602;51.084;7.090;2023-03-16T06:08:49;100232.91;;;2.11;100.00
37764;BME280;23602;51.084;7.090;2023-03-16T06:11:14;100236.22;;;2.13;100.00
37764;BME280;23602;51.084;7.090;2023-03-16T06:13:40;100243.88;;;2.16;100.00
37764;BME280;23602;51.084;7.090;2023-03-16T06:16:05;100236.88;;;2.15;100.00
37764;BME280;23602;51.084;7.090;2023-03-16T06:18:31;100232.94;;;2.19;100.00
37764;BME280;23602;51.084;7.090;2023-03-16T06:20:57;100233.94;;;2.18;100.00
37764;BME280;23602;51.084;7.090;2023-03-16T06:23:22;100226.97;;;2.17;100.00
37764;BME280;23602;51.084;7.090;2023-03-16T06:25:47;100226.81;;;2.18;100.00
37764;BME280;23602;51.084;7.090;2023-03-16T06:28:13;100224.16;;;2.18;100.00
37764;BME280;23602;51.084;7.090;2023-03-16T06:30:38;100227.50;;;2.20;100.00
37764;BME280;23602;51.084;7.090;2023-03-16T06:33:04;100221.97;;;2.31;100.00
37764;BME280;23602;51.084;7.090;2023-03-16T06:35:29;100224.44;;;2.33;100.00
37764;BME280;23602;51.084;7.090;2023-03-16T06:37:55;100230.78;;;2.40;100.00
37764;BME280;23602;51.084;7.090;2023-03-16T06:40:20;100226.38;;;2.48;100.00
37764;BME280;23602;51.084;7.090;2023-03-16T06:42:45;100233.28;;;2.67;100.00
37764;BME280;23602;51.084;7.090;2023-03-16T06:45:11;100238.63;;;2.75;100.00
37764;BME280;23602;51.084;7.090;2023-03-16T06:47:37;100234.81;;;2.78;100.00
37764;BME280;23602;51.084;7.090;2023-03-16T06:50:02;100234.81;;;2.78;100.00
37764;BME280;23602;51.084;7.090;2023-03-16T06:52:31;100230.53;;;2.77;100.00
37764;BME280;23602;51.084;7.090;2023-03-16T06:54:59;100230.53;;;2.85;100.00
37764;BME280;23602;51.084;7.090;2023-03-16T06:57:25;100236.25;;;2.90;100.00
37764;BME280;23602;51.084;7.090;2023-03-16T06:59:50;100235.09;;;3.00;100.00
37764;BME280;23602;51.084;7.090;2023-03-16T07:02:15;100246.25;;;3.04;100.00
37764;BME280;23602;51.084;7.090;2023-03-16T07:04:41;100250.72;;;3.03;100.00
37764;BME280;23602;51.084;7.090;2023-03-16T07:07:06;100247.59;;;3.08;100.00
37764;BME280;23602;51.084;7.090;2023-03-16T07:09:32;100246.13;;;3.13;100.00
37764;BME280;23602;51.084;7.090;2023-03-16T07:11:58;100242.31;;;3.16;100.00
37764;BME280;23602;51.084;7.090;2023-03-16T07:14:23;100235.72;;;3.20;100.00
37764;BME280;23602;51.084;7.090;2023-03-16T07:16:50;100243.69;;;3.28;100.00
37764;BME280;23602;51.084;7.090;2023-03-16T07:19:16;100251.84;;;3.35;100.00
37764;BME280;23602;51.084;7.090;2023-03-16T07:21:41;100244.56;;;3.37;100.00
37764;BME280;23602;51.084;7.090;2023-03-16T07:24:08;100248.53;;;3.41;100.00
37764;BME280;23602;51.084;7.090;2023-03-16T07:26:33;100240.94;;;3.46;100.00
37764;BME280;23602;51.084;7.090;2023-03-16T07:28:59;100238.13;;;3.47;100.00
37764;BME280;23602;51.084;7.090;2023-03-16T07:31:24;100241.97;;;3.53;100.00
37764;BME280;23602;51.084;7.090;2023-03-16T07:33:49;100241.78;;;3.54;100.00
37764;BME280;23602;51.084;7.090;2023-03-16T07:36:16;100238.97;;;3.56;100.00
37764;BME280;23602;51.084;7.090;2023-03-16T07:38:41;100243.94;;;3.59;100.00
37764;BME280;23602;51.084;7.090;2023-03-16T07:41:06;100240.13;;;3.61;100.00
37764;BME280;23602;51.084;7.090;2023-03-16T07:43:32;100247.97;;;3.63;100.00
37764;BME280;23602;51.084;7.090;2023-03-16T07:45:57;100240.81;;;3.71;100.00
37764;BME280;23602;51.084;7.090;2023-03-16T07:48:23;100247.16;;;3.78;100.00
37764;BME280;23602;51.084;7.090;2023-03-16T07:50:49;100237.69;;;3.84;100.00
37764;BME280;23602;51.084;7.090;2023-03-16T07:53:14;100242.69;;;3.95;100.00
37764;BME280;23602;51.084;7.090;2023-03-16T07:55:40;100247.03;;;4.04;100.00
37764;BME280;23602;51.084;7.090;2023-03-16T07:58:06;100240.06;;;4.11;100.00
37764;BME280;23602;51.084;7.090;2023-03-16T08:00:32;100228.41;;;4.12;100.00
37764;BME280;23602;51.084;7.090;2023-03-16T08:02:57;100238.38;;;4.18;100.00
37764;BME280;23602;51.084;7.090;2023-03-16T08:05:23;100228.41;;;4.20;100.00
37764;BME280;23602;51.084;7.090;2023-03-16T08:07:48;100228.72;;;4.33;100.00
37764;BME280;23602;51.084;7.090;2023-03-16T08:10:13;100234.25;;;4.32;100.00
37764;BME280;23602;51.084;7.090;2023-03-16T08:12:39;100229.06;;;4.38;100.00
37764;BME280;23602;51.084;7.090;2023-03-16T08:15:04;100219.91;;;4.41;100.00
37764;BME280;23602;51.084;7.090;2023-03-16T08:17:30;100221.41;;;4.52;100.00
37764;BME280;23602;51.084;7.090;2023-03-16T08:19:55;100222.38;;;4.51;100.00
37764;BME280;23602;51.084;7.090;2023-03-16T08:22:21;100226.38;;;4.55;100.00
37764;BME280;23602;51.084;7.090;2023-03-16T08:24:46;100226.22;;;4.56;100.00
37764;BME280;23602;51.084;7.090;2023-03-16T08:27:13;100231.53;;;4.56;100.00
37764;BME280;23602;51.084;7.090;2023-03-16T08:29:40;100243.16;;;4.63;100.00
37764;BME280;23602;51.084;7.090;2023-03-16T08:32:05;100238.31;;;4.75;100.00
37764;BME280;23602;51.084;7.090;2023-03-16T08:34:30;100231.63;;;4.87;100.00
37764;BME280;23602;51.084;7.090;2023-03-16T08:36:56;100219.94;;;4.96;100.00
37764;BME280;23602;51.084;7.090;2023-03-16T08:39:21;100223.78;;;4.93;100.00
37764;BME280;23602;51.084;7.090;2023-03-16T08:41:47;100216.28;;;4.97;100.00
37764;BME280;23602;51.084;7.090;2023-03-16T08:44:12;100221.06;;;5.09;100.00
37764;BME280;23602;51.084;7.090;2023-03-16T08:46:38;100218.31;;;5.34;100.00
37764;BME280;23602;51.084;7.090;2023-03-16T08:49:04;100209.91;;;5.45;100.00
37764;BME280;23602;51.084;7.090;2023-03-16T08:51:30;100217.03;;;5.52;100.00
37764;BME280;23602;51.084;7.090;2023-03-16T08:53:56;100216.72;;;5.47;100.00
37764;BME280;23602;51.084;7.090;2023-03-16T08:56:21;100204.41;;;5.46;100.00
37764;BME280;23602;51.084;7.090;2023-03-16T08:58:47;100221.63;;;5.66;100.00
37764;BME280;23602;51.084;7.090;2023-03-16T09:01:13;100228.28;;;5.62;100.00
37764;BME280;23602;51.084;7.090;2023-03-16T09:03:39;100220.78;;;5.66;100.00
37764;BME280;23602;51.084;7.090;2023-03-16T09:06:05;100214.84;;;5.56;100.00
37764;BME280;23602;51.084;7.090;2023-03-16T09:08:31;100214.81;;;5.64;100.00
37764;BME280;23602;51.084;7.090;2023-03-16T09:11:00;100220.91;;;5.72;100.00
37764;BME280;23602;51.084;7.090;2023-03-16T09:13:26;100214.91;;;5.70;100.00
37764;BME280;23602;51.084;7.090;2023-03-16T09:15:51;100220.00;;;5.88;100.00
37764;BME280;23602;51.084;7.090;2023-03-16T09:18:17;100228.13;;;5.95;100.00
37764;BME280;23602;51.084;7.090;2023-03-16T09:20:43;100220.84;;;5.89;100.00
37764;BME280;23602;51.084;7.090;2023-03-16T09:23:11;100211.66;;;5.91;100.00
37764;BME280;23602;51.084;7.090;2023-03-16T09:25:40;100207.59;;;5.95;100.00
37764;BME280;23602;51.084;7.090;2023-03-16T09:28:05;100216.56;;;6.02;100.00
37764;BME280;23602;51.084;7.090;2023-03-16T09:30:30;100208.16;;;6.28;100.00
37764;BME280;23602;51.084;7.090;2023-03-16T09:32:57;100210.63;;;6.67;100.00
37764;BME280;23602;51.084;7.090;2023-03-16T09:35:22;100205.56;;;6.86;100.00
37764;BME280;23602;51.084;7.090;2023-03-16T09:37:47;100204.09;;;7.13;100.00
37764;BME280;23602;51.084;7.090;2023-03-16T09:40:19;100192.66;;;7.34;100.00
37764;BME280;23602;51.084;7.090;2023-03-16T09:42:47;100195.75;;;7.52;100.00
37764;BME280;23602;51.084;7.090;2023-03-16T09:47:40;100194.41;;;7.84;100.00
37764;BME280;23602;51.084;7.090;2023-03-16T09:50:09;100194.22;;;7.64;100.00
37764;BME280;23602;51.084;7.090;2023-03-16T09:52:40;100186.28;;;7.20;100.00
37764;BME280;23602;51.084;7.090;2023-03-16T09:57:49;100188.25;;;7.12;100.00
37764;BME280;23602;51.084;7.090;2023-03-16T10:00:16;100180.91;;;7.49;100.00
37764;BME280;23602;51.084;7.090;2023-03-16T10:02:46;100178.47;;;7.76;100.00
37764;BME280;23602;51.084;7.090;2023-03-16T10:05:16;100167.34;;;7.93;100.00
37764;BME280;23602;51.084;7.090;2023-03-16T10:12:52;100154.91;;;7.43;100.00
37764;BME280;23602;51.084;7.090;2023-03-16T10:15:25;100152.72;;;7.32;100.00
37764;BME280;23602;51.084;7.090;2023-03-16T10:20:18;100156.47;;;7.74;100.00
37764;BME280;23602;51.084;7.090;2023-03-16T10:22:45;100148.75;;;7.64;100.00
37764;BME280;23602;51.084;7.090;2023-03-16T10:25:31;100158.44;;;7.65;100.00
37764;BME280;23602;51.084;7.090;2023-03-16T10:28:02;100161.75;;;7.67;100.00
37764;BME280;23602;51.084;7.090;2023-03-16T10:30:28;100161.75;;;7.67;100.00
37764;BME280;23602;51.084;7.090;2023-03-16T10:33:01;100158.19;;;7.60;100.00
37764;BME280;23602;51.084;7.090;2023-03-16T10:35:37;100152.31;;;7.71;100.00
37764;BME280;23602;51.084;7.090;2023-03-16T10:38:24;100158.00;;;7.83;100.00
37764;BME280;23602;51.084;7.090;2023-03-16T10:40:51;100144.81;;;7.60;100.00
37764;BME280;23602;51.084;7.090;2023-03-16T10:43:16;100148.94;;;7.84;100.00
37764;BME280;23602;51.084;7.090;2023-03-16T10:45:42;100156.22;;;7.90;100.00
37764;BME280;23602;51.084;7.090;2023-03-16T10:48:10;100146.13;;;7.71;100.00
37764;BME280;23602;51.084;7.090;2023-03-16T10:50:38;100151.94;;;7.74;100.00
37764;BME280;23602;51.084;7.090;2023-03-16T10:53:03;100149.81;;;7.91;100.00
37764;BME280;23602;51.084;7.090;2023-03-16T10:55:29;100136.75;;;8.02;100.00
37764;BME280;23602;51.084;7.090;2023-03-16T10:57:57;100138.25;;;8.11;100.00
37764;BME280;23602;51.084;7.090;2023-03-16T11:00:26;100135.69;;;8.24;100.00
37764;BME280;23602;51.084;7.090;2023-03-16T11:02:53;100132.75;;;8.41;100.00
37764;BME280;23602;51.084;7.090;2023-03-16T11:07:50;100123.19;;;9.00;100.00
37764;BME280;23602;51.084;7.090;2023-03-16T11:13:00;100105.03;;;9.76;100.00
37764;BME280;23602;51.084;7.090;2023-03-16T11:15:25;100098.59;;;9.64;100.00
37764;BME280;23602;51.084;7.090;2023-03-16T11:17:52;100084.59;;;9.55;100.00
37764;BME280;23602;51.084;7.090;2023-03-16T11:20:25;100086.25;;;9.89;100.00
37764;BME280;23602;51.084;7.090;2023-03-16T11:22:52;100089.53;;;9.97;100.00
37764;BME280;23602;51.084;7.090;2023-03-16T11:25:28;100086.66;;;9.79;100.00
37764;BME280;23602;51.084;7.090;2023-03-16T11:28:06;100091.19;;;9.66;100.00
37764;BME280;23602;51.084;7.090;2023-03-16T11:30:40;100087.50;;;9.86;100.00
37764;BME280;23602;51.084;7.090;2023-03-16T11:33:08;100082.09;;;9.40;100.00
37764;BME280;23602;51.084;7.090;2023-03-16T11:35:38;100069.31;;;9.56;100.00
37764;BME280;23602;51.084;7.090;2023-03-16T11:41:00;100050.91;;;9.39;100.00
37764;BME280;23602;51.084;7.090;2023-03-16T11:43:41;100050.31;;;9.37;100.00
37764;BME280;23602;51.084;7.090;2023-03-16T11:48:49;100056.31;;;9.66;100.00
37764;BME280;23602;51.084;7.090;2023-03-16T11:56:52;100051.97;;;9.51;100.00
37764;BME280;23602;51.084;7.090;2023-03-16T12:00:19;100042.28;;;9.50;100.00
37764;BME280;23602;51.084;7.090;2023-03-16T12:05:08;100035.84;;;10.30;100.00
37764;BME280;23602;51.084;7.090;2023-03-16T12:07:54;100033.13;;;10.43;100.00
37764;BME280;23602;51.084;7.090;2023-03-16T12:15:38;100015.22;;;10.24;97.55
37764;BME280;23602;51.084;7.090;2023-03-16T12:20:56;100020.38;;;10.76;100.00
37764;BME280;23602;51.084;7.090;2023-03-16T12:23:31;100008.97;;;10.88;100.00
37764;BME280;23602;51.084;7.090;2023-03-16T12:25:58;100003.09;;;10.59;97.08
37764;BME280;23602;51.084;7.090;2023-03-16T12:28:25;99996.06;;;10.58;100.00
37764;BME280;23602;51.084;7.090;2023-03-16T12:30:57;99993.56;;;10.63;100.00
37764;BME280;23602;51.084;7.090;2023-03-16T12:43:56;99972.38;;;10.42;100.00
37764;BME280;23602;51.084;7.090;2023-03-16T12:48:57;99960.69;;;10.04;100.00
37764;BME280;23602;51.084;7.090;2023-03-16T12:51:35;99957.81;;;9.99;98.13
37764;BME280;23602;51.084;7.090;2023-03-16T12:54:00;99951.03;;;9.77;100.00
37764;BME280;23602;51.084;7.090;2023-03-16T12:56:30;99957.84;;;9.86;100.00
37764;BME280;23602;51.084;7.090;2023-03-16T12:58:57;99957.38;;;10.08;100.00
37764;BME280;23602;51.084;7.090;2023-03-16T13:01:25;99946.81;;;10.27;100.00
37764;BME280;23602;51.084;7.090;2023-03-16T13:03:57;99942.88;;;10.29;100.00
37764;BME280;23602;51.084;7.090;2023-03-16T13:06:24;99933.34;;;10.33;100.00
37764;BME280;23602;51.084;7.090;2023-03-16T13:08:57;99934.56;;;10.44;100.00
37764;BME280;23602;51.084;7.090;2023-03-16T13:11:27;99943.69;;;10.36;100.00
37764;BME280;23602;51.084;7.090;2023-03-16T13:14:05;99929.03;;;10.26;100.00
37764;BME280;23602;51.084;7.090;2023-03-16T13:16:33;99917.41;;;10.45;100.00
37764;BME280;23602;51.084;7.090;2023-03-16T13:19:24;99914.44;;;10.53;100.00
37764;BME280;23602;51.084;7.090;2023-03-16T13:21:58;99905.84;;;10.75;100.00
37764;BME280;23602;51.084;7.090;2023-03-16T13:24:25;99914.44;;;10.91;100.00
37764;BME280;23602;51.084;7.090;2023-03-16T13:26:56;99906.38;;;10.91;99.83
37764;BME280;23602;51.084;7.090;2023-03-16T13:29:23;99913.91;;;10.75;89.92
37764;BME280;23602;51.084;7.090;2023-03-16T13:31:50;99903.91;;;10.89;98.87
37764;BME280;23602;51.084;7.090;2023-03-16T13:34:20;99892.94;;;10.91;96.45
37764;BME280;23602;51.084;7.090;2023-03-16T13:36:46;99892.13;;;10.90;95.56
37764;BME280;23602;51.084;7.090;2023-03-16T13:39:18;99889.44;;;11.15;100.00
37764;BME280;23602;51.084;7.090;2023-03-16T13:42:13;99877.91;;;11.32;100.00
37764;BME280;23602;51.084;7.090;2023-03-16T13:44:39;99878.50;;;11.59;96.82
37764;BME280;23602;51.084;7.090;2023-03-16T13:47:05;99878.69;;;11.58;87.18
37764;BME280;23602;51.084;7.090;2023-03-16T13:49:31;99873.38;;;11.51;83.08